Celeste, Texas
Current Conditions -  °F | °C
As of 4:15 AM on Thursday 18 Dec 2014 (Local Time) from KGVT Reporting Station
Overcast Overcast  
Wind Chill: 38°   Ceiling: 400
Heat Index: 41°   Visibility: 10mi
Dew Point: 39°   Wind: 5mph
Humidity: 93%   Direction: 110°ESE
Pressure: 30.13"   Gusts: NA
Location:  33.29°N, 96.19°W
Report Text: KGVT 181015Z AUTO 11004KT 10SM BKN004 OVC019 05/04 A3013 RMK AO2
Loading
Personal Weather Stations






























Interactive Weather Map New forecast layout! Learn more

10-Day Weather Forecast

Advertisements
Track Severe Weather on mobile